Content, Texas
Current Conditions -  °F | °C
As of 12:15 PM on Thursday 29 Jan 2015 (Local Time) from KCOM Reporting Station
Broken Clouds Broken Clouds  
Wind Chill: 66°   Ceiling: 10000
Heat Index: 66°   Visibility: 10mi
Dew Point: 39°   Wind: 18mph
Humidity: 37%   Direction: 40°NE
Pressure: 30.32"   Gusts: 23mph
Location:  32.0006°N, 99.5803°W
Report Text: KCOM 291815Z AUTO 04016G20KT 10SM BKN100 19/04 A3032 RMK AO2 T01900041
Loading
Personal Weather Stations






























Interactive Weather Map New forecast layout! Learn more

10-Day Weather Forecast

Advertisements
Track Severe Weather on mobile